sensor_id;sensor_type;location;lat;lon;timestamp;temperature;humidity
8220;DHT22;4151;51.110;7.020;2023-02-15T00:01:27;3.90;99.90
8220;DHT22;4151;51.110;7.020;2023-02-15T00:03:53;3.80;99.90
8220;DHT22;4151;51.110;7.020;2023-02-15T00:06:18;3.80;99.90
8220;DHT22;4151;51.110;7.020;2023-02-15T00:08:44;3.80;99.90
8220;DHT22;4151;51.110;7.020;2023-02-15T00:11:12;3.80;99.90
8220;DHT22;4151;51.110;7.020;2023-02-15T00:13:38;3.80;99.90
8220;DHT22;4151;51.110;7.020;2023-02-15T00:16:12;3.80;99.90
8220;DHT22;4151;51.110;7.020;2023-02-15T00:18:40;3.80;99.90
8220;DHT22;4151;51.110;7.020;2023-02-15T00:21:07;3.80;99.90
8220;DHT22;4151;51.110;7.020;2023-02-15T00:23:33;3.70;99.90
8220;DHT22;4151;51.110;7.020;2023-02-15T00:26:10;3.70;99.90
8220;DHT22;4151;51.110;7.020;2023-02-15T00:28:36;3.60;99.90
8220;DHT22;4151;51.110;7.020;2023-02-15T00:31:04;3.50;99.90
8220;DHT22;4151;51.110;7.020;2023-02-15T00:33:29;3.60;99.90
8220;DHT22;4151;51.110;7.020;2023-02-15T00:35:59;3.60;99.90
8220;DHT22;4151;51.110;7.020;2023-02-15T00:38:26;3.50;99.90
8220;DHT22;4151;51.110;7.020;2023-02-15T00:40:57;3.40;99.90
8220;DHT22;4151;51.110;7.020;2023-02-15T00:43:22;3.30;99.90
8220;DHT22;4151;51.110;7.020;2023-02-15T00:45:48;3.20;99.90
8220;DHT22;4151;51.110;7.020;2023-02-15T00:48:14;3.10;99.90
8220;DHT22;4151;51.110;7.020;2023-02-15T00:50:40;3.10;99.90
8220;DHT22;4151;51.110;7.020;2023-02-15T00:53:05;3.10;99.90
8220;DHT22;4151;51.110;7.020;2023-02-15T00:55:31;3.00;99.90
8220;DHT22;4151;51.110;7.020;2023-02-15T00:57:57;2.90;99.90
8220;DHT22;4151;51.110;7.020;2023-02-15T01:00:22;2.90;99.90
8220;DHT22;4151;51.110;7.020;2023-02-15T01:02:48;2.90;99.90
8220;DHT22;4151;51.110;7.020;2023-02-15T01:05:14;2.80;99.90
8220;DHT22;4151;51.110;7.020;2023-02-15T01:07:39;2.80;99.90
8220;DHT22;4151;51.110;7.020;2023-02-15T01:10:06;2.80;99.90
8220;DHT22;4151;51.110;7.020;2023-02-15T01:12:32;2.60;99.90
8220;DHT22;4151;51.110;7.020;2023-02-15T01:14:58;2.50;99.90
8220;DHT22;4151;51.110;7.020;2023-02-15T01:17:23;2.50;99.90
8220;DHT22;4151;51.110;7.020;2023-02-15T01:19:49;2.40;99.90
8220;DHT22;4151;51.110;7.020;2023-02-15T01:22:14;2.40;99.90
8220;DHT22;4151;51.110;7.020;2023-02-15T01:24:40;2.40;99.90
8220;DHT22;4151;51.110;7.020;2023-02-15T01:27:05;2.50;99.90
8220;DHT22;4151;51.110;7.020;2023-02-15T01:29:31;2.50;99.90
8220;DHT22;4151;51.110;7.020;2023-02-15T01:31:56;2.40;99.90
8220;DHT22;4151;51.110;7.020;2023-02-15T01:34:22;2.40;99.90
8220;DHT22;4151;51.110;7.020;2023-02-15T01:36:47;2.30;99.90
8220;DHT22;4151;51.110;7.020;2023-02-15T01:39:13;2.30;99.90
8220;DHT22;4151;51.110;7.020;2023-02-15T01:41:40;2.30;99.90
8220;DHT22;4151;51.110;7.020;2023-02-15T01:47:11;2.10;99.90
8220;DHT22;4151;51.110;7.020;2023-02-15T01:49:38;2.20;99.90
8220;DHT22;4151;51.110;7.020;2023-02-15T01:52:07;2.20;99.90
8220;DHT22;4151;51.110;7.020;2023-02-15T01:54:35;2.10;99.90
8220;DHT22;4151;51.110;7.020;2023-02-15T01:57:06;2.10;99.90
8220;DHT22;4151;51.110;7.020;2023-02-15T01:59:34;2.10;99.90
8220;DHT22;4151;51.110;7.020;2023-02-15T02:02:02;2.10;99.90
8220;DHT22;4151;51.110;7.020;2023-02-15T02:04:31;2.10;99.90
8220;DHT22;4151;51.110;7.020;2023-02-15T02:06:59;2.10;99.90
8220;DHT22;4151;51.110;7.020;2023-02-15T02:09:25;2.10;99.90
8220;DHT22;4151;51.110;7.020;2023-02-15T02:11:51;2.00;99.90
8220;DHT22;4151;51.110;7.020;2023-02-15T02:14:19;2.00;99.90
8220;DHT22;4151;51.110;7.020;2023-02-15T02:16:52;1.90;99.90
8220;DHT22;4151;51.110;7.020;2023-02-15T02:19:46;1.80;99.90
8220;DHT22;4151;51.110;7.020;2023-02-15T02:30:47;1.90;99.90
8220;DHT22;4151;51.110;7.020;2023-02-15T02:33:28;1.90;99.90
8220;DHT22;4151;51.110;7.020;2023-02-15T02:36:15;1.90;99.90
8220;DHT22;4151;51.110;7.020;2023-02-15T02:41:40;1.70;99.90
8220;DHT22;4151;51.110;7.020;2023-02-15T02:45:04;1.60;99.90
8220;DHT22;4151;51.110;7.020;2023-02-15T02:49:39;1.60;99.90
8220;DHT22;4151;51.110;7.020;2023-02-15T02:52:34;1.60;99.90
8220;DHT22;4151;51.110;7.020;2023-02-15T02:54:54;1.60;99.90
8220;DHT22;4151;51.110;7.020;2023-02-15T02:57:22;1.50;99.90
8220;DHT22;4151;51.110;7.020;2023-02-15T02:59:50;1.40;99.90
8220;DHT22;4151;51.110;7.020;2023-02-15T03:02:23;1.40;99.90
8220;DHT22;4151;51.110;7.020;2023-02-15T03:04:56;1.40;99.90
8220;DHT22;4151;51.110;7.020;2023-02-15T03:07:25;1.40;99.90
8220;DHT22;4151;51.110;7.020;2023-02-15T03:09:54;1.40;99.90
8220;DHT22;4151;51.110;7.020;2023-02-15T03:12:24;1.40;99.90
8220;DHT22;4151;51.110;7.020;2023-02-15T03:14:56;1.30;99.90
8220;DHT22;4151;51.110;7.020;2023-02-15T03:17:23;1.30;99.90
8220;DHT22;4151;51.110;7.020;2023-02-15T03:19:53;1.30;99.90
8220;DHT22;4151;51.110;7.020;2023-02-15T03:22:28;1.30;99.90
8220;DHT22;4151;51.110;7.020;2023-02-15T03:25:01;1.30;99.90
8220;DHT22;4151;51.110;7.020;2023-02-15T03:27:34;1.20;99.90
8220;DHT22;4151;51.110;7.020;2023-02-15T03:30:02;1.30;99.90
8220;DHT22;4151;51.110;7.020;2023-02-15T03:32:30;1.20;99.90
8220;DHT22;4151;51.110;7.020;2023-02-15T03:34:57;1.10;99.90
8220;DHT22;4151;51.110;7.020;2023-02-15T03:37:32;1.10;99.90
8220;DHT22;4151;51.110;7.020;2023-02-15T03:43:08;1.10;99.90
8220;DHT22;4151;51.110;7.020;2023-02-15T03:45:38;1.00;99.90
8220;DHT22;4151;51.110;7.020;2023-02-15T03:48:21;1.10;99.90
8220;DHT22;4151;51.110;7.020;2023-02-15T03:50:48;1.10;99.90
8220;DHT22;4151;51.110;7.020;2023-02-15T03:53:32;1.10;99.90
8220;DHT22;4151;51.110;7.020;2023-02-15T03:55:58;1.00;99.90
8220;DHT22;4151;51.110;7.020;2023-02-15T03:58:24;1.00;99.90
8220;DHT22;4151;51.110;7.020;2023-02-15T04:04:21;1.00;99.90
8220;DHT22;4151;51.110;7.020;2023-02-15T04:06:48;0.90;99.90
8220;DHT22;4151;51.110;7.020;2023-02-15T04:09:14;1.00;99.90
8220;DHT22;4151;51.110;7.020;2023-02-15T04:11:58;1.00;99.90
8220;DHT22;4151;51.110;7.020;2023-02-15T04:14:24;0.90;99.90
8220;DHT22;4151;51.110;7.020;2023-02-15T04:17:08;0.90;99.90
8220;DHT22;4151;51.110;7.020;2023-02-15T04:19:34;0.90;99.90
8220;DHT22;4151;51.110;7.020;2023-02-15T04:22:18;0.90;99.90
8220;DHT22;4151;51.110;7.020;2023-02-15T04:25:03;0.90;99.90
8220;DHT22;4151;51.110;7.020;2023-02-15T04:27:45;0.90;99.90
8220;DHT22;4151;51.110;7.020;2023-02-15T04:30:12;0.80;99.90
8220;DHT22;4151;51.110;7.020;2023-02-15T04:32:39;0.80;99.90
8220;DHT22;4151;51.110;7.020;2023-02-15T04:35:05;0.80;99.90
8220;DHT22;4151;51.110;7.020;2023-02-15T04:37:31;0.80;99.90
8220;DHT22;4151;51.110;7.020;2023-02-15T04:39:57;0.80;99.90
8220;DHT22;4151;51.110;7.020;2023-02-15T04:42:26;0.70;99.90
8220;DHT22;4151;51.110;7.020;2023-02-15T04:44:52;0.70;99.90
8220;DHT22;4151;51.110;7.020;2023-02-15T04:47:18;0.60;99.90
8220;DHT22;4151;51.110;7.020;2023-02-15T04:49:44;0.50;99.90
8220;DHT22;4151;51.110;7.020;2023-02-15T04:52:10;0.60;99.90
8220;DHT22;4151;51.110;7.020;2023-02-15T04:54:35;0.60;99.90
8220;DHT22;4151;51.110;7.020;2023-02-15T04:57:01;0.60;99.90
8220;DHT22;4151;51.110;7.020;2023-02-15T04:59:27;0.60;99.90
8220;DHT22;4151;51.110;7.020;2023-02-15T05:01:52;0.50;99.90
8220;DHT22;4151;51.110;7.020;2023-02-15T05:04:18;0.50;99.90
8220;DHT22;4151;51.110;7.020;2023-02-15T05:06:44;0.50;99.90
8220;DHT22;4151;51.110;7.020;2023-02-15T05:09:11;0.50;99.90
8220;DHT22;4151;51.110;7.020;2023-02-15T05:11:36;0.40;99.90
8220;DHT22;4151;51.110;7.020;2023-02-15T05:14:02;0.30;99.90
8220;DHT22;4151;51.110;7.020;2023-02-15T05:16:28;0.30;99.90
8220;DHT22;4151;51.110;7.020;2023-02-15T05:18:53;0.30;99.90
8220;DHT22;4151;51.110;7.020;2023-02-15T05:21:19;0.40;99.90
8220;DHT22;4151;51.110;7.020;2023-02-15T05:23:45;0.40;99.90
8220;DHT22;4151;51.110;7.020;2023-02-15T05:26:12;0.50;99.90
8220;DHT22;4151;51.110;7.020;2023-02-15T05:28:59;0.50;99.90
8220;DHT22;4151;51.110;7.020;2023-02-15T05:31:25;0.50;99.90
8220;DHT22;4151;51.110;7.020;2023-02-15T05:33:50;0.40;99.90
8220;DHT22;4151;51.110;7.020;2023-02-15T05:36:16;0.30;99.90
8220;DHT22;4151;51.110;7.020;2023-02-15T05:38:42;0.20;99.90
8220;DHT22;4151;51.110;7.020;2023-02-15T05:41:08;0.20;99.90
8220;DHT22;4151;51.110;7.020;2023-02-15T05:43:34;0.20;99.90
8220;DHT22;4151;51.110;7.020;2023-02-15T05:46:00;0.20;99.90
8220;DHT22;4151;51.110;7.020;2023-02-15T05:48:27;0.30;99.90
8220;DHT22;4151;51.110;7.020;2023-02-15T05:51:12;0.30;99.90
8220;DHT22;4151;51.110;7.020;2023-02-15T05:53:40;0.20;99.90
8220;DHT22;4151;51.110;7.020;2023-02-15T05:56:07;0.20;99.90
8220;DHT22;4151;51.110;7.020;2023-02-15T05:58:40;0.20;99.90
8220;DHT22;4151;51.110;7.020;2023-02-15T06:01:11;0.30;99.90
8220;DHT22;4151;51.110;7.020;2023-02-15T06:03:37;0.30;99.90
8220;DHT22;4151;51.110;7.020;2023-02-15T06:06:03;0.30;99.90
8220;DHT22;4151;51.110;7.020;2023-02-15T06:08:30;0.20;99.90
8220;DHT22;4151;51.110;7.020;2023-02-15T06:10:56;0.20;99.90
8220;DHT22;4151;51.110;7.020;2023-02-15T06:13:21;0.20;99.90
8220;DHT22;4151;51.110;7.020;2023-02-15T06:15:47;0.20;99.90
8220;DHT22;4151;51.110;7.020;2023-02-15T06:18:12;0.30;99.90
8220;DHT22;4151;51.110;7.020;2023-02-15T06:20:38;0.40;99.90
8220;DHT22;4151;51.110;7.020;2023-02-15T06:23:03;0.40;99.90
8220;DHT22;4151;51.110;7.020;2023-02-15T06:25:29;0.30;99.90
8220;DHT22;4151;51.110;7.020;2023-02-15T06:27:55;0.40;99.90
8220;DHT22;4151;51.110;7.020;2023-02-15T06:30:20;0.50;99.90
8220;DHT22;4151;51.110;7.020;2023-02-15T06:32:46;0.60;99.90
8220;DHT22;4151;51.110;7.020;2023-02-15T06:35:11;0.60;99.90
8220;DHT22;4151;51.110;7.020;2023-02-15T06:37:37;0.60;99.90
8220;DHT22;4151;51.110;7.020;2023-02-15T06:40:03;0.70;99.90
8220;DHT22;4151;51.110;7.020;2023-02-15T06:42:29;0.70;99.90
8220;DHT22;4151;51.110;7.020;2023-02-15T06:44:55;0.60;99.90
8220;DHT22;4151;51.110;7.020;2023-02-15T06:47:21;0.60;99.90
8220;DHT22;4151;51.110;7.020;2023-02-15T06:49:46;0.60;99.90
8220;DHT22;4151;51.110;7.020;2023-02-15T06:52:12;0.60;99.90
8220;DHT22;4151;51.110;7.020;2023-02-15T06:54:37;0.70;99.90
8220;DHT22;4151;51.110;7.020;2023-02-15T06:57:03;0.70;99.90
8220;DHT22;4151;51.110;7.020;2023-02-15T06:59:28;0.60;99.90
8220;DHT22;4151;51.110;7.020;2023-02-15T07:01:54;0.60;99.90
8220;DHT22;4151;51.110;7.020;2023-02-15T07:04:20;0.70;99.90
8220;DHT22;4151;51.110;7.020;2023-02-15T07:06:45;0.70;99.90
8220;DHT22;4151;51.110;7.020;2023-02-15T07:09:11;0.70;99.90
8220;DHT22;4151;51.110;7.020;2023-02-15T07:11:38;0.70;99.90
8220;DHT22;4151;51.110;7.020;2023-02-15T07:14:22;0.80;99.90
8220;DHT22;4151;51.110;7.020;2023-02-15T07:16:47;0.80;99.90
8220;DHT22;4151;51.110;7.020;2023-02-15T07:19:13;0.80;99.90
8220;DHT22;4151;51.110;7.020;2023-02-15T07:21:39;0.90;99.90
8220;DHT22;4151;51.110;7.020;2023-02-15T07:24:04;0.90;99.90
8220;DHT22;4151;51.110;7.020;2023-02-15T07:26:33;1.00;99.90
8220;DHT22;4151;51.110;7.020;2023-02-15T07:28:58;1.00;99.90
8220;DHT22;4151;51.110;7.020;2023-02-15T07:31:24;1.00;99.90
8220;DHT22;4151;51.110;7.020;2023-02-15T07:33:50;1.10;99.90
8220;DHT22;4151;51.110;7.020;2023-02-15T07:36:15;1.10;99.90
8220;DHT22;4151;51.110;7.020;2023-02-15T07:38:41;1.20;99.90
8220;DHT22;4151;51.110;7.020;2023-02-15T07:41:09;1.30;99.90
8220;DHT22;4151;51.110;7.020;2023-02-15T07:43:38;1.40;99.90
8220;DHT22;4151;51.110;7.020;2023-02-15T07:46:05;1.50;99.90
8220;DHT22;4151;51.110;7.020;2023-02-15T07:48:36;1.60;99.90
8220;DHT22;4151;51.110;7.020;2023-02-15T07:51:03;1.70;99.90
8220;DHT22;4151;51.110;7.020;2023-02-15T07:53:29;1.90;99.90
8220;DHT22;4151;51.110;7.020;2023-02-15T07:55:59;2.10;99.90
8220;DHT22;4151;51.110;7.020;2023-02-15T07:58:25;2.20;99.90
8220;DHT22;4151;51.110;7.020;2023-02-15T08:01:10;2.30;99.90
8220;DHT22;4151;51.110;7.020;2023-02-15T08:03:36;2.40;99.90
8220;DHT22;4151;51.110;7.020;2023-02-15T08:06:01;2.50;99.90
8220;DHT22;4151;51.110;7.020;2023-02-15T08:08:27;2.70;99.90
8220;DHT22;4151;51.110;7.020;2023-02-15T08:10:59;2.70;99.90
8220;DHT22;4151;51.110;7.020;2023-02-15T08:13:44;2.90;99.90
8220;DHT22;4151;51.110;7.020;2023-02-15T08:16:28;3.10;99.90
8220;DHT22;4151;51.110;7.020;2023-02-15T08:18:56;3.20;99.90
8220;DHT22;4151;51.110;7.020;2023-02-15T08:21:22;3.30;99.90
8220;DHT22;4151;51.110;7.020;2023-02-15T08:23:48;3.40;99.90
8220;DHT22;4151;51.110;7.020;2023-02-15T08:26:14;3.60;99.90
8220;DHT22;4151;51.110;7.020;2023-02-15T08:28:41;3.70;99.90
8220;DHT22;4151;51.110;7.020;2023-02-15T08:31:08;3.80;99.90
8220;DHT22;4151;51.110;7.020;2023-02-15T08:33:35;3.90;99.90
8220;DHT22;4151;51.110;7.020;2023-02-15T08:36:10;4.00;99.90
8220;DHT22;4151;51.110;7.020;2023-02-15T08:38:36;4.10;99.90
8220;DHT22;4151;51.110;7.020;2023-02-15T08:41:53;4.20;99.90
8220;DHT22;4151;51.110;7.020;2023-02-15T08:44:01;4.20;99.90
8220;DHT22;4151;51.110;7.020;2023-02-15T08:46:30;4.40;99.90
8220;DHT22;4151;51.110;7.020;2023-02-15T08:48:57;4.50;99.90
8220;DHT22;4151;51.110;7.020;2023-02-15T08:51:27;4.60;99.90
8220;DHT22;4151;51.110;7.020;2023-02-15T08:53:56;4.80;99.90
8220;DHT22;4151;51.110;7.020;2023-02-15T08:56:24;5.20;99.90
8220;DHT22;4151;51.110;7.020;2023-02-15T08:58:50;5.80;99.90
8220;DHT22;4151;51.110;7.020;2023-02-15T09:01:42;6.30;99.90
8220;DHT22;4151;51.110;7.020;2023-02-15T09:04:08;7.00;99.90
8220;DHT22;4151;51.110;7.020;2023-02-15T09:06:34;7.30;99.90
8220;DHT22;4151;51.110;7.020;2023-02-15T09:09:00;7.90;99.90
8220;DHT22;4151;51.110;7.020;2023-02-15T09:11:28;8.10;99.90
8220;DHT22;4151;51.110;7.020;2023-02-15T09:13:57;8.10;99.90
8220;DHT22;4151;51.110;7.020;2023-02-15T09:16:25;8.10;99.90
8220;DHT22;4151;51.110;7.020;2023-02-15T09:18:51;8.20;99.90
8220;DHT22;4151;51.110;7.020;2023-02-15T09:21:20;8.20;99.90
8220;DHT22;4151;51.110;7.020;2023-02-15T09:23:48;8.40;99.90
8220;DHT22;4151;51.110;7.020;2023-02-15T09:26:16;8.30;99.90
8220;DHT22;4151;51.110;7.020;2023-02-15T09:28:42;8.80;99.90
8220;DHT22;4151;51.110;7.020;2023-02-15T09:33:41;9.00;99.90
8220;DHT22;4151;51.110;7.020;2023-02-15T09:36:22;9.00;99.90
8220;DHT22;4151;51.110;7.020;2023-02-15T09:38:54;8.90;99.90
8220;DHT22;4151;51.110;7.020;2023-02-15T09:44:41;9.60;99.90
8220;DHT22;4151;51.110;7.020;2023-02-15T09:55:51;10.40;99.90
8220;DHT22;4151;51.110;7.020;2023-02-15T10:20:42;11.20;99.90
8220;DHT22;4151;51.110;7.020;2023-02-15T10:23:34;11.40;99.90
8220;DHT22;4151;51.110;7.020;2023-02-15T10:26:22;11.50;99.90
8220;DHT22;4151;51.110;7.020;2023-02-15T10:39:54;12.30;99.90
8220;DHT22;4151;51.110;7.020;2023-02-15T10:42:39;12.80;99.90
8220;DHT22;4151;51.110;7.020;2023-02-15T10:48:21;13.40;99.90
8220;DHT22;4151;51.110;7.020;2023-02-15T10:51:03;13.40;99.90
8220;DHT22;4151;51.110;7.020;2023-02-15T10:53:44;13.40;99.90
8220;DHT22;4151;51.110;7.020;2023-02-15T10:59:26;12.50;99.90
8220;DHT22;4151;51.110;7.020;2023-02-15T11:02:17;12.20;99.90
8220;DHT22;4151;51.110;7.020;2023-02-15T11:05:02;12.40;99.90
8220;DHT22;4151;51.110;7.020;2023-02-15T11:07:40;12.50;99.90
8220;DHT22;4151;51.110;7.020;2023-02-15T11:10:24;12.80;99.90
8220;DHT22;4151;51.110;7.020;2023-02-15T11:12:52;13.50;99.90
8220;DHT22;4151;51.110;7.020;2023-02-15T11:15:35;14.60;99.90
8220;DHT22;4151;51.110;7.020;2023-02-15T11:18:27;14.90;99.90
8220;DHT22;4151;51.110;7.020;2023-02-15T11:23:28;15.60;99.90
8220;DHT22;4151;51.110;7.020;2023-02-15T11:25:58;15.70;99.90
8220;DHT22;4151;51.110;7.020;2023-02-15T11:28:31;16.20;99.90
8220;DHT22;4151;51.110;7.020;2023-02-15T11:31:05;15.90;99.90
8220;DHT22;4151;51.110;7.020;2023-02-15T11:33:38;15.50;99.90
8220;DHT22;4151;51.110;7.020;2023-02-15T11:36:32;14.80;99.90
8220;DHT22;4151;51.110;7.020;2023-02-15T11:39:02;14.60;99.90
8220;DHT22;4151;51.110;7.020;2023-02-15T11:41:32;14.80;99.90
8220;DHT22;4151;51.110;7.020;2023-02-15T11:46:46;14.90;99.90
8220;DHT22;4151;51.110;7.020;2023-02-15T11:49:29;15.40;99.90
8220;DHT22;4151;51.110;7.020;2023-02-15T11:51:56;15.70;99.90
8220;DHT22;4151;51.110;7.020;2023-02-15T11:54:27;16.00;99.90
8220;DHT22;4151;51.110;7.020;2023-02-15T11:56:57;16.00;99.90
8220;DHT22;4151;51.110;7.020;2023-02-15T11:59:31;16.10;99.90
8220;DHT22;4151;51.110;7.020;2023-02-15T12:01:57;16.50;99.90
8220;DHT22;4151;51.110;7.020;2023-02-15T12:04:34;17.20;99.90
8220;DHT22;4151;51.110;7.020;2023-02-15T12:09:48;17.50;99.90
8220;DHT22;4151;51.110;7.020;2023-02-15T12:12:27;17.90;99.90
8220;DHT22;4151;51.110;7.020;2023-02-15T12:15:13;17.50;99.90
8220;DHT22;4151;51.110;7.020;2023-02-15T12:17:53;18.20;99.90
8220;DHT22;4151;51.110;7.020;2023-02-15T12:22:49;17.40;99.90
8220;DHT22;4151;51.110;7.020;2023-02-15T12:26:10;17.50;99.90
8220;DHT22;4151;51.110;7.020;2023-02-15T12:28:38;17.90;99.90
8220;DHT22;4151;51.110;7.020;2023-02-15T12:31:33;18.30;99.90
8220;DHT22;4151;51.110;7.020;2023-02-15T12:34:08;18.20;99.90
8220;DHT22;4151;51.110;7.020;2023-02-15T12:38:31;17.60;99.90
8220;DHT22;4151;51.110;7.020;2023-02-15T12:41:05;17.40;99.90
8220;DHT22;4151;51.110;7.020;2023-02-15T12:43:34;17.80;99.90
8220;DHT22;4151;51.110;7.020;2023-02-15T12:46:24;17.90;99.90
8220;DHT22;4151;51.110;7.020;2023-02-15T12:51:54;18.10;99.90
8220;DHT22;4151;51.110;7.020;2023-02-15T12:56:46;19.40;99.90
8220;DHT22;4151;51.110;7.020;2023-02-15T12:59:14;19.40;99.20
8220;DHT22;4151;51.110;7.020;2023-02-15T13:01:41;19.50;98.50
8220;DHT22;4151;51.110;7.020;2023-02-15T13:04:24;19.40;98.30
8220;DHT22;4151;51.110;7.020;2023-02-15T13:06:53;19.10;98.50
8220;DHT22;4151;51.110;7.020;2023-02-15T13:09:26;19.10;99.20
8220;DHT22;4151;51.110;7.020;2023-02-15T13:12:18;19.90;98.50
8220;DHT22;4151;51.110;7.020;2023-02-15T13:14:47;20.10;98.40
8220;DHT22;4151;51.110;7.020;2023-02-15T13:17:15;20.30;96.60
8220;DHT22;4151;51.110;7.020;2023-02-15T13:19:52;20.20;96.40
8220;DHT22;4151;51.110;7.020;2023-02-15T13:22:44;20.00;96.50
8220;DHT22;4151;51.110;7.020;2023-02-15T13:25:22;19.70;95.50
8220;DHT22;4151;51.110;7.020;2023-02-15T13:27:52;19.50;97.00
8220;DHT22;4151;51.110;7.020;2023-02-15T13:30:27;20.10;95.90
8220;DHT22;4151;51.110;7.020;2023-02-15T13:33:01;20.20;95.10
8220;DHT22;4151;51.110;7.020;2023-02-15T13:35:34;19.30;95.40
8220;DHT22;4151;51.110;7.020;2023-02-15T13:54:45;18.00;98.30
8220;DHT22;4151;51.110;7.020;2023-02-15T14:06:05;20.00;96.90
8220;DHT22;4151;51.110;7.020;2023-02-15T14:08:54;19.60;95.80
8220;DHT22;4151;51.110;7.020;2023-02-15T14:11:29;19.20;96.90
8220;DHT22;4151;51.110;7.020;2023-02-15T14:17:20;21.30;94.30
8220;DHT22;4151;51.110;7.020;2023-02-15T14:19:57;21.20;93.10
8220;DHT22;4151;51.110;7.020;2023-02-15T14:22:36;21.30;92.80
8220;DHT22;4151;51.110;7.020;2023-02-15T14:25:27;21.20;92.30
8220;DHT22;4151;51.110;7.020;2023-02-15T14:28:05;21.00;92.40
8220;DHT22;4151;51.110;7.020;2023-02-15T14:30:38;21.00;92.50
8220;DHT22;4151;51.110;7.020;2023-02-15T14:33:15;20.40;93.10
8220;DHT22;4151;51.110;7.020;2023-02-15T14:35:43;20.20;94.20
8220;DHT22;4151;51.110;7.020;2023-02-15T14:54:55;18.80;95.60
8220;DHT22;4151;51.110;7.020;2023-02-15T14:59:44;17.90;98.80
8220;DHT22;4151;51.110;7.020;2023-02-15T15:02:26;17.60;99.40
8220;DHT22;4151;51.110;7.020;2023-02-15T15:05:14;17.10;99.90
8220;DHT22;4151;51.110;7.020;2023-02-15T15:07:49;16.90;99.90
8220;DHT22;4151;51.110;7.020;2023-02-15T15:20:47;16.10;99.90
8220;DHT22;4151;51.110;7.020;2023-02-15T15:31:15;14.70;99.90
8220;DHT22;4151;51.110;7.020;2023-02-15T15:36:57;14.30;99.90
8220;DHT22;4151;51.110;7.020;2023-02-15T15:39:41;14.10;99.90
8220;DHT22;4151;51.110;7.020;2023-02-15T15:42:48;13.90;99.90
8220;DHT22;4151;51.110;7.020;2023-02-15T15:50:31;13.40;99.90
8220;DHT22;4151;51.110;7.020;2023-02-15T15:52:58;13.30;99.90
8220;DHT22;4151;51.110;7.020;2023-02-15T15:55:27;13.10;99.90
8220;DHT22;4151;51.110;7.020;2023-02-15T15:57:56;12.90;99.90
8220;DHT22;4151;51.110;7.020;2023-02-15T16:02:52;12.60;99.90
8220;DHT22;4151;51.110;7.020;2023-02-15T16:05:18;12.50;99.90
8220;DHT22;4151;51.110;7.020;2023-02-15T16:07:44;12.40;99.90
8220;DHT22;4151;51.110;7.020;2023-02-15T16:10:21;12.30;99.90
8220;DHT22;4151;51.110;7.020;2023-02-15T16:12:48;12.20;99.90
8220;DHT22;4151;51.110;7.020;2023-02-15T16:15:20;12.10;99.90
8220;DHT22;4151;51.110;7.020;2023-02-15T16:17:52;12.00;99.90
8220;DHT22;4151;51.110;7.020;2023-02-15T16:20:32;11.80;99.90
8220;DHT22;4151;51.110;7.020;2023-02-15T16:28:19;11.30;99.90
8220;DHT22;4151;51.110;7.020;2023-02-15T16:30:45;11.20;99.90
8220;DHT22;4151;51.110;7.020;2023-02-15T16:33:15;11.10;99.90
8220;DHT22;4151;51.110;7.020;2023-02-15T16:35:54;10.90;99.90
8220;DHT22;4151;51.110;7.020;2023-02-15T16:41:15;10.60;99.90
8220;DHT22;4151;51.110;7.020;2023-02-15T16:43:46;10.50;99.90
8220;DHT22;4151;51.110;7.020;2023-02-15T16:46:32;10.40;99.90
8220;DHT22;4151;51.110;7.020;2023-02-15T16:49:02;10.30;99.90
8220;DHT22;4151;51.110;7.020;2023-02-15T16:51:31;10.10;99.90
8220;DHT22;4151;51.110;7.020;2023-02-15T16:54:03;10.00;99.90
8220;DHT22;4151;51.110;7.020;2023-02-15T16:56:31;10.00;99.90
8220;DHT22;4151;51.110;7.020;2023-02-15T16:58:58;9.90;99.90
8220;DHT22;4151;51.110;7.020;2023-02-15T17:01:27;9.80;99.90
8220;DHT22;4151;51.110;7.020;2023-02-15T17:07:05;9.70;99.90
8220;DHT22;4151;51.110;7.020;2023-02-15T17:09:32;9.60;99.90
8220;DHT22;4151;51.110;7.020;2023-02-15T17:11:58;9.60;99.90
8220;DHT22;4151;51.110;7.020;2023-02-15T17:14:31;9.50;99.90
8220;DHT22;4151;51.110;7.020;2023-02-15T17:17:05;9.50;99.90
8220;DHT22;4151;51.110;7.020;2023-02-15T17:19:40;9.50;99.90
8220;DHT22;4151;51.110;7.020;2023-02-15T17:22:17;9.40;99.90
8220;DHT22;4151;51.110;7.020;2023-02-15T17:24:44;9.40;99.90
8220;DHT22;4151;51.110;7.020;2023-02-15T17:27:20;9.30;99.90
8220;DHT22;4151;51.110;7.020;2023-02-15T17:30:14;9.30;99.90
8220;DHT22;4151;51.110;7.020;2023-02-15T21:51:43;6.00;99.90
8220;DHT22;4151;51.110;7.020;2023-02-15T21:54:27;5.90;99.90
8220;DHT22;4151;51.110;7.020;2023-02-15T21:56:53;5.80;99.90
8220;DHT22;4151;51.110;7.020;2023-02-15T21:59:18;5.80;99.90
8220;DHT22;4151;51.110;7.020;2023-02-15T22:01:47;5.80;99.90
8220;DHT22;4151;51.110;7.020;2023-02-15T22:04:19;5.70;99.90
8220;DHT22;4151;51.110;7.020;2023-02-15T22:06:45;5.60;99.90
8220;DHT22;4151;51.110;7.020;2023-02-15T22:09:30;5.60;99.90
8220;DHT22;4151;51.110;7.020;2023-02-15T22:11:55;5.50;99.90
8220;DHT22;4151;51.110;7.020;2023-02-15T22:16:59;5.40;99.90
8220;DHT22;4151;51.110;7.020;2023-02-15T22:19:25;5.40;99.90
8220;DHT22;4151;51.110;7.020;2023-02-15T22:21:51;5.30;99.90
8220;DHT22;4151;51.110;7.020;2023-02-15T22:24:17;5.20;99.90
8220;DHT22;4151;51.110;7.020;2023-02-15T22:26:42;5.00;99.90
8220;DHT22;4151;51.110;7.020;2023-02-15T22:29:17;4.90;99.90
8220;DHT22;4151;51.110;7.020;2023-02-15T22:31:43;4.90;99.90
8220;DHT22;4151;51.110;7.020;2023-02-15T22:34:26;4.80;99.90
8220;DHT22;4151;51.110;7.020;2023-02-15T22:36:52;4.80;99.90
8220;DHT22;4151;51.110;7.020;2023-02-15T22:39:18;4.70;99.90
8220;DHT22;4151;51.110;7.020;2023-02-15T22:41:44;4.70;99.90
8220;DHT22;4151;51.110;7.020;2023-02-15T22:44:11;4.70;99.90
8220;DHT22;4151;51.110;7.020;2023-02-15T22:46:38;4.70;99.90
8220;DHT22;4151;51.110;7.020;2023-02-15T22:49:04;4.80;99.90
8220;DHT22;4151;51.110;7.020;2023-02-15T22:51:30;4.80;99.90
8220;DHT22;4151;51.110;7.020;2023-02-15T22:53:55;4.80;99.90
8220;DHT22;4151;51.110;7.020;2023-02-15T22:56:31;4.80;99.90
8220;DHT22;4151;51.110;7.020;2023-02-15T22:59:01;4.80;99.90
8220;DHT22;4151;51.110;7.020;2023-02-15T23:01:34;4.80;99.90
8220;DHT22;4151;51.110;7.020;2023-02-15T23:04:00;4.80;99.90
8220;DHT22;4151;51.110;7.020;2023-02-15T23:06:26;4.80;99.90
8220;DHT22;4151;51.110;7.020;2023-02-15T23:08:52;4.80;99.90
8220;DHT22;4151;51.110;7.020;2023-02-15T23:11:18;4.70;99.90
8220;DHT22;4151;51.110;7.020;2023-02-15T23:13:44;4.70;99.90
8220;DHT22;4151;51.110;7.020;2023-02-15T23:16:14;4.70;99.90
8220;DHT22;4151;51.110;7.020;2023-02-15T23:18:42;4.70;99.90
8220;DHT22;4151;51.110;7.020;2023-02-15T23:21:32;4.60;99.90
8220;DHT22;4151;51.110;7.020;2023-02-15T23:24:19;4.60;99.90
8220;DHT22;4151;51.110;7.020;2023-02-15T23:26:45;4.50;99.90
8220;DHT22;4151;51.110;7.020;2023-02-15T23:29:18;4.40;99.90
8220;DHT22;4151;51.110;7.020;2023-02-15T23:31:45;4.30;99.90
8220;DHT22;4151;51.110;7.020;2023-02-15T23:34:31;4.30;99.90
8220;DHT22;4151;51.110;7.020;2023-02-15T23:36:57;4.20;99.90
8220;DHT22;4151;51.110;7.020;2023-02-15T23:39:25;4.20;99.90
8220;DHT22;4151;51.110;7.020;2023-02-15T23:42:15;4.20;99.90
8220;DHT22;4151;51.110;7.020;2023-02-15T23:44:45;4.10;99.90
8220;DHT22;4151;51.110;7.020;2023-02-15T23:47:23;4.10;99.90
8220;DHT22;4151;51.110;7.020;2023-02-15T23:50:19;4.10;99.90
8220;DHT22;4151;51.110;7.020;2023-02-15T23:52:45;4.00;99.90
8220;DHT22;4151;51.110;7.020;2023-02-15T23:55:14;3.90;99.90
8220;DHT22;4151;51.110;7.020;2023-02-15T23:57:43;3.80;99.90
